• Join FlightAware (Why Join?)
  • Login
  • US Flag 
04:12AM EDT


 

Airport Tracker/Info


-or-


 

Live Flight TrackerFlight Track Log ✈ WIG7117 ✈ 15-Jul-2013 ✈ KALB - KSYR

Flight Track Log - Related Links

Times and Time Zones

All times are in EDT time to prevent confusion due to time zone crossing. See the WIG7117 flight status page for this flight to view local times or setup timezone preferences in your user account.

Time Position Orientation Groundspeed Altitude Reporting Facility
EDT Latitude Longitude Course Direction KTS MPH feet Rate Location/Type
10:24PM 42.7403 -73.8083 184° South 92 106 800  Level Boston Center
10:24PM 42.7153 -73.8106 184° South 110 127 1,500 840 Climbing Boston Center
10:25PM 42.6900 -73.8356 216° Southwest 132 152 2,400 840 Climbing Boston Center
10:26PM 42.6956 -73.8808 279° West 110 127 3,200 780 Climbing Boston Center
10:28PM 42.7031 -73.9347 281° West 127 146 4,200 840 Climbing Boston Center
10:29PM 42.7108 -73.9828 282° West 129 148 5,100 840 Climbing Boston Center
10:30PM 42.7247 -74.0314 291° West 130 150 5,900 720 Climbing Boston Center
10:31PM 42.7325 -74.0794 282° West 136 157 6,600 720 Climbing Boston Center
10:32PM 42.7400 -74.1306 281° West 136 157 7,400 660 Climbing Boston Center
10:33PM 42.7519 -74.1733 291° West 131 151 8,000 300 Climbing Boston Center
10:34PM 42.7636 -74.2189 289° West 135 155 8,000 60 Level Boston Center
10:34PM 42.7692 -74.2644 279° West 142 163 8,100  Climbing Boston Center
10:36PM 42.7808 -74.3242 285° West 139 160 8,100  Level Boston Center
10:37PM 42.7906 -74.3697 286° West 137 158 8,100  Level Boston Center
10:38PM 42.8019 -74.4267 285° West 137 158 8,100  Level Boston Center
10:39PM 42.8094 -74.4750 282° West 136 157 8,100  Level Boston Center
10:40PM 42.8189 -74.5264 284° West 138 159 8,100  Level Boston Center
10:41PM 42.8306 -74.5747 288° West 136 157 8,100  Level Boston Center
10:41PM 42.8403 -74.6175 287° West 136 157 8,100  Level Boston Center
10:42PM 42.8475 -74.6717 280° West 136 157 8,100  Level Boston Center
10:44PM 42.8569 -74.7203 285° West 137 158 8,100  Level Boston Center
10:45PM 42.8683 -74.7744 286° West 139 160 8,100  Level Boston Center
10:46PM 42.8778 -74.8231 285° West 138 159 8,100  Level Boston Center
10:47PM 42.8892 -74.8772 286° West 138 159 8,100  Level Boston Center
10:48PM 42.8964 -74.9286 281° West 140 161 8,100  Level Boston Center
10:49PM 42.9078 -74.9800 287° West 140 161 8,100  Level Boston Center
10:50PM 42.9169 -75.0314 284° West 140 161 8,100  Level Boston Center
10:51PM 42.9264 -75.0800 285° West 139 160 8,100  Level Boston Center
10:52PM 42.9356 -75.1286 284° West 138 159 8,100  Level Boston Center
10:53PM 42.9428 -75.1800 281° West 136 157 8,100  Level Boston Center
10:54PM 42.9519 -75.2317 284° West 137 158 8,100 -60 Level Boston Center
10:55PM 42.9631 -75.2858 286° West 139 160 8,000  Descending Boston Center
10:56PM 42.9742 -75.3406 286° West 138 159 8,100  Climbing Boston Center
10:57PM 42.9814 -75.3861 282° West 137 158 8,000 -60 Descending Boston Center
10:58PM 42.9903 -75.4406 283° West 137 158 8,000  Level Boston Center
10:59PM 43.0014 -75.4950 286° West 137 158 8,100  Climbing Boston Center
11:00PM 43.0103 -75.5467 283° West 138 159 8,100 -60 Level Boston Center
11:01PM 43.0194 -75.5983 284° West 137 158 8,000 -720 Descending Boston Center
11:02PM 43.0303 -75.6583 284° West 179 206 6,700 -1,140 Descending Boston Center
11:03PM 43.0408 -75.7214 283° West 178 205 5,800 -780 Descending Boston Center
11:04PM 43.0575 -75.7992 286° West 166 191 5,000 -600 Descending Boston Center
11:05PM 43.0661 -75.8536 282° West 150 173 4,600 -600 Descending Boston Center
11:06PM 43.0769 -75.9111 284° West 163 188 3,800 -840 Descending Boston Center
11:07PM 43.0856 -75.9714 281° West 166 191 3,000 -780 Descending Boston Center
11:08PM 43.0900 -76.0283 276° West 163 188 2,400 -600 Descending Boston Center
11:09PM 43.0819 -76.0878 260° West 155 178 1,900 -420 Descending Boston Center
11:10PM 43.0781 -76.1414 264° West 140 161 1,600 -300 Descending Boston Center